Time;durP1;ratioP1;P1;durP2;ratioP2;P2;SDS_P1;SDS_P2;PMS_P1;PMS_P2;Temp;Humidity;BMP_temperature;BMP_pressure;BME280_temperature;BME280_humidity;BME280_pressure;Samples;Min_cycle;Max_cycle;Signal;HPM_P1;HPM_P2
2023/12/11 00:00:10;;;;;;;32.15;5.80;;;;;;;9.27;100.00;99826.91;5025550;28;20049;-72
2023/12/11 00:02:37;;;;;;;27.20;6.03;;;;;;;9.26;100.00;99819.09;5025240;28;20056;-73
2023/12/11 00:05:04;;;;;;;39.15;6.85;;;;;;;9.23;100.00;99814.78;5031972;28;20061;-73
2023/12/11 00:07:32;;;;;;;31.20;5.53;;;;;;;9.19;100.00;99810.59;5031215;28;20045;-73
2023/12/11 00:09:59;;;;;;;32.78;5.50;;;;;;;9.18;100.00;99803.63;5022656;28;20049;-73
2023/12/11 00:12:26;;;;;;;37.50;6.03;;;;;;;9.17;100.00;99813.25;5024452;28;20582;-72
2023/12/11 00:14:53;;;;;;;29.73;5.95;;;;;;;9.19;100.00;99809.72;5025235;28;20052;-72
2023/12/11 00:17:22;;;;;;;32.95;5.38;;;;;;;9.17;100.00;99809.78;5025527;28;20057;-73
2023/12/11 00:19:49;;;;;;;32.70;5.68;;;;;;;9.14;100.00;99812.53;5025617;28;20144;-71
2023/12/11 00:22:17;;;;;;;36.67;6.50;;;;;;;9.10;100.00;99811.81;5025317;28;20136;-72
2023/12/11 00:24:44;;;;;;;31.85;5.68;;;;;;;9.07;100.00;99811.91;5024107;28;20041;-71
2023/12/11 00:27:11;;;;;;;30.30;5.10;;;;;;;9.06;100.00;99810.22;5024586;28;20045;-71
2023/12/11 00:29:39;;;;;;;33.30;6.20;;;;;;;9.04;100.00;99812.06;5027145;28;20037;-70
2023/12/11 00:32:06;;;;;;;26.77;5.60;;;;;;;9.00;100.00;99805.22;5027680;28;20049;-71
2023/12/11 00:34:33;;;;;;;28.02;5.15;;;;;;;8.97;100.00;99810.59;5027810;28;20041;-71
2023/12/11 00:37:00;;;;;;;38.60;5.95;;;;;;;8.94;100.00;99805.47;5026952;28;20073;-72
2023/12/11 00:39:27;;;;;;;31.17;6.38;;;;;;;8.93;100.00;99814.28;5028870;28;20540;-73
2023/12/11 00:41:55;;;;;;;40.20;5.88;;;;;;;8.90;100.00;99817.00;5028215;28;20413;-72
2023/12/11 00:44:22;;;;;;;40.35;5.13;;;;;;;8.85;100.00;99815.41;5028537;28;20041;-72
2023/12/11 00:46:49;;;;;;;30.08;5.10;;;;;;;8.82;100.00;99831.31;5028056;28;20125;-72
2023/12/11 00:49:15;;;;;;;39.47;5.85;;;;;;;8.77;100.00;99817.50;5028781;28;20038;-71
2023/12/11 00:51:43;;;;;;;35.13;6.32;;;;;;;8.77;100.00;99824.53;5029119;28;20056;-72
2023/12/11 00:54:10;;;;;;;32.53;6.15;;;;;;;8.75;100.00;99813.22;5029279;28;20527;-72
2023/12/11 00:56:37;;;;;;;31.48;6.13;;;;;;;8.76;100.00;99814.94;5030192;28;20051;-71
2023/12/11 00:59:04;;;;;;;31.63;5.20;;;;;;;8.74;100.00;99806.25;5028119;28;20037;-71
2023/12/11 01:01:31;;;;;;;34.88;6.15;;;;;;;8.70;100.00;99816.88;5027897;28;20052;-71
2023/12/11 01:03:58;;;;;;;33.70;6.13;;;;;;;8.69;100.00;99814.31;5027851;28;20045;-71
2023/12/11 01:06:25;;;;;;;35.90;5.85;;;;;;;8.66;100.00;99814.41;5065058;28;20041;-71
2023/12/11 01:08:52;;;;;;;39.38;6.55;;;;;;;8.68;100.00;99820.47;5026839;28;20042;-72
2023/12/11 01:11:19;;;;;;;40.70;6.65;;;;;;;8.67;100.00;99817.00;5025879;28;20041;-72
2023/12/11 01:13:46;;;;;;;38.00;6.70;;;;;;;8.67;100.00;99818.75;5025344;28;20652;-72
2023/12/11 01:16:13;;;;;;;39.25;6.45;;;;;;;8.70;100.00;99810.75;5040741;28;20045;-72
2023/12/11 01:18:40;;;;;;;33.63;6.63;;;;;;;8.73;100.00;99802.78;5028382;28;20049;-72
2023/12/11 01:21:07;;;;;;;29.75;5.35;;;;;;;8.76;100.00;99804.41;5027714;28;20054;-70
2023/12/11 01:23:35;;;;;;;34.63;6.32;;;;;;;8.77;100.00;99800.88;5024782;28;20053;-71
2023/12/11 01:26:02;;;;;;;33.75;5.88;;;;;;;8.78;100.00;99800.81;5043386;28;20041;-71
2023/12/11 01:28:29;;;;;;;38.60;6.00;;;;;;;8.76;100.00;99793.91;5028734;28;20047;-71
2023/12/11 01:30:56;;;;;;;35.15;6.20;;;;;;;8.74;100.00;99793.09;5026062;28;20041;-72
2023/12/11 01:33:23;;;;;;;37.67;6.35;;;;;;;8.71;100.00;99791.47;5027749;28;20071;-72
2023/12/11 01:35:50;;;;;;;37.03;5.88;;;;;;;8.69;100.00;99782.78;5027863;28;20128;-71
2023/12/11 01:38:18;;;;;;;33.95;5.75;;;;;;;8.67;100.00;99774.09;5042672;28;20048;-71
2023/12/11 01:40:45;;;;;;;41.42;6.22;;;;;;;8.67;100.00;99774.09;5027054;28;20077;-71
2023/12/11 01:43:18;;;;;;;36.00;6.10;;;;;;;8.67;100.00;99772.34;5027164;28;20049;-71
2023/12/11 01:45:59;;;;;;;33.05;5.80;;;;;;;8.69;100.00;99777.53;5028890;28;20041;-71
2023/12/11 01:48:28;;;;;;;36.65;5.40;;;;;;;8.68;100.00;99781.06;5026630;28;20045;-71
2023/12/11 01:50:56;;;;;;;40.53;6.55;;;;;;;8.72;100.00;99771.28;5031758;28;20045;-72
2023/12/11 01:53:26;;;;;;;38.35;6.65;;;;;;;8.76;100.00;99765.00;5025437;28;20037;-71
2023/12/11 01:55:54;;;;;;;34.85;5.65;;;;;;;8.78;100.00;99764.00;5027398;28;20034;-72
2023/12/11 01:58:22;;;;;;;36.47;6.75;;;;;;;8.80;100.00;99758.72;5027685;28;20044;-72
2023/12/11 02:00:49;;;;;;;39.17;5.88;;;;;;;8.84;100.00;99752.41;5028567;28;20525;-71
2023/12/11 02:03:18;;;;;;;33.40;5.68;;;;;;;8.89;100.00;99747.81;5023650;28;20042;-71
2023/12/11 02:05:45;;;;;;;35.58;6.38;;;;;;;8.94;100.00;99758.16;5040108;28;20086;-71
2023/12/11 02:08:15;;;;;;;34.20;5.40;;;;;;;9.00;100.00;99744.75;5026345;28;20069;-71
2023/12/11 02:10:42;;;;;;;26.88;5.35;;;;;;;9.06;100.00;99741.00;5026070;28;20046;-71
2023/12/11 02:13:10;;;;;;;35.20;5.78;;;;;;;9.12;100.00;99732.84;5027674;28;20132;-71
2023/12/11 02:15:40;;;;;;;30.30;5.68;;;;;;;9.15;100.00;99725.72;5033916;28;20033;-70
2023/12/11 02:18:10;;;;;;;32.38;5.45;;;;;;;9.16;100.00;99722.13;5027564;28;20042;-71
2023/12/11 02:20:38;;;;;;;41.78;6.50;;;;;;;9.13;100.00;99719.66;5025390;28;20050;-70
2023/12/11 02:23:29;;;;;;;29.40;5.00;;;;;;;9.12;100.00;99725.84;5019190;28;20037;-71
2023/12/11 02:26:15;;;;;;;34.08;5.40;;;;;;;9.14;100.00;99716.13;5045416;28;20041;-71
2023/12/11 02:28:42;;;;;;;28.52;5.32;;;;;;;9.17;100.00;99723.00;5042778;28;20132;-72
2023/12/11 02:31:10;;;;;;;29.33;4.82;;;;;;;9.24;100.00;99718.34;5024757;28;20663;-71
2023/12/11 02:33:38;;;;;;;29.60;4.93;;;;;;;9.29;100.00;99709.34;5027982;28;20099;-71
2023/12/11 02:36:06;;;;;;;29.13;5.38;;;;;;;9.33;100.00;99695.13;5024432;28;20405;-71
2023/12/11 02:38:33;;;;;;;29.80;4.32;;;;;;;9.37;100.00;99701.09;5023995;28;20038;-72
2023/12/11 02:41:00;;;;;;;30.50;5.00;;;;;;;9.39;100.00;99686.13;5041808;28;20041;-72
2023/12/11 02:43:27;;;;;;;31.45;5.07;;;;;;;9.43;100.00;99686.81;5025007;28;20041;-71
2023/12/11 02:45:54;;;;;;;33.45;5.28;;;;;;;9.42;100.00;99679.84;5024925;28;20041;-71
2023/12/11 02:48:21;;;;;;;23.25;4.85;;;;;;;9.39;100.00;99680.00;5026136;28;20045;-71
2023/12/11 02:50:49;;;;;;;32.05;4.57;;;;;;;9.40;100.00;99682.56;5026727;28;20057;-71
2023/12/11 02:53:16;;;;;;;35.75;6.30;;;;;;;9.41;100.00;99681.66;5025792;28;20107;-71
2023/12/11 02:55:43;;;;;;;30.58;4.82;;;;;;;9.41;100.00;99670.28;5038262;28;20029;-72
2023/12/11 02:58:10;;;;;;;30.20;5.13;;;;;;;9.43;100.00;99676.31;5015338;28;20068;-72
2023/12/11 03:00:37;;;;;;;29.98;4.85;;;;;;;9.46;100.00;99673.56;5027311;28;20099;-72
2023/12/11 03:03:04;;;;;;;30.80;5.22;;;;;;;9.47;100.00;99668.22;5027131;28;20063;-71
2023/12/11 03:05:31;;;;;;;32.40;5.13;;;;;;;9.48;100.00;99664.66;5040587;28;20042;-71
2023/12/11 03:07:58;;;;;;;27.80;5.03;;;;;;;9.49;100.00;99657.63;5026736;28;20042;-70
2023/12/11 03:10:25;;;;;;;26.33;4.45;;;;;;;9.48;100.00;99664.66;5026333;28;20045;-71
2023/12/11 03:12:52;;;;;;;28.92;4.85;;;;;;;9.50;100.00;99659.34;5024277;28;20045;-71
2023/12/11 03:15:19;;;;;;;28.92;4.95;;;;;;;9.54;100.00;99652.16;5014910;28;20040;-71
2023/12/11 03:17:47;;;;;;;26.85;5.35;;;;;;;9.52;100.00;99648.75;5025084;28;20053;-71
2023/12/11 03:20:14;;;;;;;28.38;4.97;;;;;;;9.54;100.00;99641.66;5025377;28;20073;-72
2023/12/11 03:22:41;;;;;;;29.33;4.65;;;;;;;9.54;100.00;99644.28;5015708;28;20095;-73
2023/12/11 03:25:08;;;;;;;24.50;4.32;;;;;;;9.58;100.00;99638.81;5024569;28;20489;-72
2023/12/11 03:27:36;;;;;;;26.48;4.22;;;;;;;9.61;100.00;99635.16;5016304;28;20547;-72
2023/12/11 03:30:04;;;;;;;24.13;4.50;;;;;;;9.61;100.00;99628.13;5024005;28;20065;-71
2023/12/11 03:32:31;;;;;;;23.63;4.05;;;;;;;9.64;100.00;99619.25;5023645;28;20080;-71
2023/12/11 03:34:58;;;;;;;23.33;4.90;;;;;;;9.64;100.00;99621.88;5025594;28;20100;-70
2023/12/11 03:37:25;;;;;;;21.15;3.80;;;;;;;9.63;100.00;99623.66;5038226;28;20140;-70
2023/12/11 03:39:52;;;;;;;26.30;5.05;;;;;;;9.58;100.00;99620.38;5020520;28;20045;-70
2023/12/11 03:42:19;;;;;;;28.02;5.40;;;;;;;9.52;100.00;99623.28;5026602;28;20571;-70
2023/12/11 03:44:46;;;;;;;22.67;4.53;;;;;;;9.48;100.00;99614.69;5042325;28;20060;-70
2023/12/11 03:47:13;;;;;;;25.40;4.53;;;;;;;9.53;100.00;99630.25;5022462;28;20081;-69
2023/12/11 03:49:40;;;;;;;24.70;3.97;;;;;;;9.53;100.00;99617.09;5020175;28;20041;-72
2023/12/11 03:52:07;;;;;;;20.75;4.75;;;;;;;9.55;100.00;99617.88;5040507;28;20064;-69
2023/12/11 03:54:35;;;;;;;23.05;4.15;;;;;;;9.55;100.00;99630.19;5025213;28;20421;-70
2023/12/11 03:57:03;;;;;;;26.60;4.40;;;;;;;9.56;100.00;99614.34;5025329;28;20061;-70
2023/12/11 03:59:30;;;;;;;24.33;4.40;;;;;;;9.60;100.00;99628.19;5038901;28;20046;-70
2023/12/11 04:01:58;;;;;;;20.88;4.15;;;;;;;9.60;100.00;99610.66;5021794;28;20076;-70
2023/12/11 04:04:25;;;;;;;33.10;5.63;;;;;;;9.60;100.00;99618.53;5017975;28;20053;-70
2023/12/11 04:06:52;;;;;;;25.00;4.70;;;;;;;9.60;100.00;99618.53;5042872;28;20076;-70
2023/12/11 04:09:19;;;;;;;27.70;4.70;;;;;;;9.59;100.00;99622.09;5030962;28;20051;-70
2023/12/11 04:11:46;;;;;;;23.55;4.20;;;;;;;9.58;100.00;99616.88;5013676;28;20045;-70
2023/12/11 04:14:13;;;;;;;31.42;4.65;;;;;;;9.58;100.00;99622.16;5029936;28;20148;-70
2023/12/11 04:16:41;;;;;;;22.48;4.22;;;;;;;9.57;100.00;99617.81;5030474;28;20034;-70
2023/12/11 04:19:11;;;;;;;23.33;3.90;;;;;;;9.56;100.00;99605.59;5029627;28;20037;-70
2023/12/11 04:21:39;;;;;;;20.42;4.05;;;;;;;9.59;100.00;99611.56;5029911;28;20050;-71
2023/12/11 04:24:06;;;;;;;20.92;3.75;;;;;;;9.63;100.00;99605.22;5012394;28;20048;-71
2023/12/11 04:26:33;;;;;;;23.10;4.22;;;;;;;9.66;100.00;99612.16;5027888;28;20033;-71
2023/12/11 04:29:00;;;;;;;19.83;3.65;;;;;;;9.68;100.00;99604.16;5027467;28;20532;-71
2023/12/11 04:31:27;;;;;;;21.25;3.80;;;;;;;9.67;100.00;99591.94;5026337;28;20664;-71
2023/12/11 04:33:54;;;;;;;16.63;3.42;;;;;;;9.68;100.00;99599.75;5023692;28;20037;-69
2023/12/11 04:36:21;;;;;;;18.45;3.03;;;;;;;9.69;100.00;99590.94;5010648;28;20120;-70
2023/12/11 04:38:49;;;;;;;16.40;3.38;;;;;;;9.70;100.00;99581.28;5034132;28;20223;-71
2023/12/11 04:41:16;;;;;;;16.23;3.28;;;;;;;9.70;100.00;99597.91;5045412;28;20045;-70
2023/12/11 04:43:43;;;;;;;17.45;3.28;;;;;;;9.70;100.00;99583.91;5043006;28;20038;-71
2023/12/11 04:46:10;;;;;;;17.77;3.50;;;;;;;9.64;100.00;99585.03;5042510;28;20044;-71
2023/12/11 04:48:38;;;;;;;26.35;3.92;;;;;;;9.58;100.00;99593.19;5020230;28;20486;-72
2023/12/11 04:51:06;;;;;;;31.40;4.22;;;;;;;9.51;100.00;99591.78;5029587;28;20118;-71
2023/12/11 04:53:33;;;;;;;19.40;3.63;;;;;;;9.42;100.00;99582.53;5023196;28;20056;-72
2023/12/11 04:56:06;;;;;;;19.23;3.92;;;;;;;9.40;100.00;99574.72;5026590;28;20037;-72
2023/12/11 04:58:33;;;;;;;24.40;4.03;;;;;;;9.38;100.00;99567.81;5028430;28;20041;-72
2023/12/11 05:01:00;;;;;;;21.90;4.30;;;;;;;9.41;100.00;99573.81;5023478;28;20101;-72
2023/12/11 05:03:28;;;;;;;20.55;3.92;;;;;;;9.47;100.00;99580.56;5025243;28;20567;-71
2023/12/11 05:05:55;;;;;;;21.98;4.10;;;;;;;9.52;100.00;99588.22;5031132;28;20045;-71
2023/12/11 05:08:21;;;;;;;21.23;4.07;;;;;;;9.56;100.00;99579.28;5029405;28;20060;-71
2023/12/11 05:10:51;;;;;;;21.02;3.85;;;;;;;9.54;100.00;99574.09;5028172;28;20123;-71
2023/12/11 05:13:18;;;;;;;22.02;3.97;;;;;;;9.50;100.00;99585.69;5026599;28;20040;-71
2023/12/11 05:15:45;;;;;;;24.63;4.43;;;;;;;9.51;100.00;99581.25;5026926;28;20033;-71
2023/12/11 05:18:13;;;;;;;24.38;4.20;;;;;;;9.52;100.00;99577.72;5027947;28;20037;-71
2023/12/11 05:20:40;;;;;;;19.75;3.60;;;;;;;9.55;100.00;99580.22;5036990;28;20053;-71
2023/12/11 05:23:07;;;;;;;25.63;3.95;;;;;;;9.54;100.00;99581.97;5022956;28;20033;-71
2023/12/11 05:25:34;;;;;;;26.10;4.07;;;;;;;9.52;100.00;99580.34;5028163;28;20522;-70
2023/12/11 05:28:01;;;;;;;25.90;4.25;;;;;;;9.50;100.00;99587.44;5027880;28;20044;-71
2023/12/11 05:30:28;;;;;;;26.83;4.53;;;;;;;9.48;100.00;99574.38;5024866;28;20081;-71
2023/12/11 05:32:55;;;;;;;20.63;3.90;;;;;;;9.46;100.00;99584.94;5020384;28;20040;-69
2023/12/11 05:35:22;;;;;;;22.42;4.30;;;;;;;9.46;100.00;99584.94;5029234;28;20079;-69
2023/12/11 05:37:49;;;;;;;23.05;3.40;;;;;;;9.49;100.00;99583.97;5028344;28;20039;-69
2023/12/11 05:40:16;;;;;;;20.45;3.95;;;;;;;9.51;100.00;99586.53;5027648;28;20037;-72
2023/12/11 05:42:51;;;;;;;28.95;4.00;;;;;;;9.53;100.00;99579.41;5024341;28;20465;-72
2023/12/11 05:45:18;;;;;;;23.85;4.25;;;;;;;9.57;100.00;99575.72;5044064;28;20045;-70
2023/12/11 05:47:46;;;;;;;19.50;3.78;;;;;;;9.63;100.00;99585.97;5026830;28;20120;-75
2023/12/11 05:50:13;;;;;;;23.80;4.78;;;;;;;9.70;100.00;99587.38;5026270;28;20130;-69
2023/12/11 05:52:40;;;;;;;25.20;4.47;;;;;;;9.76;100.00;99578.34;5025637;28;20048;-70
2023/12/11 05:55:08;;;;;;;24.98;4.25;;;;;;;9.82;100.00;99587.72;5027329;28;20515;-71
2023/12/11 05:57:35;;;;;;;30.08;4.63;;;;;;;9.82;100.00;99580.69;5028196;28;20318;-72
2023/12/11 06:00:04;;;;;;;18.60;4.07;;;;;;;9.82;100.00;99574.56;5026219;28;20076;-71
2023/12/11 06:02:31;;;;;;;19.55;3.97;;;;;;;9.79;100.00;99575.56;5027740;28;20045;-71
2023/12/11 06:04:59;;;;;;;19.98;4.30;;;;;;;9.82;100.00;99574.56;5030890;28;20037;-69
2023/12/11 06:07:29;;;;;;;21.35;4.15;;;;;;;9.79;100.00;99563.25;5019793;28;20045;-69
2023/12/11 06:09:56;;;;;;;22.05;4.10;;;;;;;9.81;100.00;99557.06;5025488;28;20129;-71
2023/12/11 06:12:26;;;;;;;24.92;4.78;;;;;;;9.82;100.00;99553.50;5026240;28;20574;-70
2023/12/11 06:14:53;;;;;;;21.90;4.10;;;;;;;9.84;100.00;99559.56;5028246;28;20072;-70
2023/12/11 06:17:20;;;;;;;20.98;3.95;;;;;;;9.89;100.00;99557.56;5026838;28;20064;-70
2023/12/11 06:19:47;;;;;;;25.30;4.13;;;;;;;9.88;100.00;99561.09;5028391;28;20084;-71
2023/12/11 06:22:14;;;;;;;21.83;4.60;;;;;;;9.84;100.00;99568.31;5024614;28;20049;-71
2023/12/11 06:24:42;;;;;;;20.55;4.10;;;;;;;9.82;100.00;99556.16;5027227;28;20545;-70
2023/12/11 06:27:10;;;;;;;20.98;3.88;;;;;;;9.77;100.00;99551.09;5025336;28;20046;-70
2023/12/11 06:29:38;;;;;;;22.52;3.80;;;;;;;9.73;100.00;99558.28;5022995;28;20076;-71
2023/12/11 06:32:06;;;;;;;26.80;4.50;;;;;;;9.68;100.00;99562.91;5025670;28;20049;-70
2023/12/11 06:34:34;;;;;;;18.20;4.10;;;;;;;9.67;100.00;99569.09;5024583;28;20060;-70
2023/12/11 06:37:01;;;;;;;20.73;3.75;;;;;;;9.64;100.00;99558.72;5022958;28;20099;-71
2023/12/11 06:39:30;;;;;;;22.00;4.10;;;;;;;9.64;100.00;99554.31;5026034;28;20041;-70
2023/12/11 06:41:57;;;;;;;18.58;4.32;;;;;;;9.67;100.00;99560.34;5022023;28;20047;-72
2023/12/11 06:44:26;;;;;;;17.48;3.90;;;;;;;9.66;100.00;99567.41;5024892;28;20034;-66
2023/12/11 06:46:54;;;;;;;26.58;4.47;;;;;;;9.64;100.00;99567.47;5026489;28;20033;-71
2023/12/11 06:49:21;;;;;;;17.73;3.90;;;;;;;9.61;100.00;99557.06;5025252;28;20064;-71
2023/12/11 06:51:49;;;;;;;16.65;3.75;;;;;;;9.62;100.00;99564.03;5041777;28;20691;-70
2023/12/11 06:54:17;;;;;;;23.23;4.15;;;;;;;9.58;100.00;99564.25;5025643;28;20385;-71
2023/12/11 06:56:46;;;;;;;18.88;3.65;;;;;;;9.56;100.00;99564.34;5026536;28;20140;-72
2023/12/11 06:59:13;;;;;;;20.00;4.10;;;;;;;9.55;100.00;99570.53;5026804;28;20033;-71
2023/12/11 07:01:40;;;;;;;27.05;4.60;;;;;;;9.50;100.00;99569.91;5026112;28;20124;-72
2023/12/11 07:04:08;;;;;;;24.20;4.00;;;;;;;9.47;100.00;99570.03;5027032;28;20051;-72
2023/12/11 07:06:35;;;;;;;18.33;4.50;;;;;;;9.45;100.00;99561.34;5041081;28;20034;-71
2023/12/11 07:09:03;;;;;;;22.63;3.95;;;;;;;9.45;100.00;99567.47;5035807;28;20137;-71
2023/12/11 07:11:30;;;;;;;23.65;3.85;;;;;;;9.44;100.00;99570.16;5024658;28;20053;-71
2023/12/11 07:13:57;;;;;;;21.98;3.70;;;;;;;9.41;100.00;99572.97;5047458;28;20041;-72
2023/12/11 07:16:24;;;;;;;21.63;3.97;;;;;;;9.39;100.00;99580.91;5026996;28;20045;-72
2023/12/11 07:18:52;;;;;;;20.38;4.00;;;;;;;9.37;100.00;99585.38;5027018;28;20042;-72
2023/12/11 07:21:20;;;;;;;20.83;4.05;;;;;;;9.37;100.00;99592.41;5027194;28;20584;-72
2023/12/11 07:23:50;;;;;;;25.58;4.28;;;;;;;9.37;100.00;99600.31;5029267;28;20037;-71
2023/12/11 07:26:17;;;;;;;23.63;3.95;;;;;;;9.33;100.00;99600.44;5029831;28;20088;-72
2023/12/11 07:28:44;;;;;;;20.67;3.83;;;;;;;9.31;100.00;99591.75;5027521;28;20409;-72
2023/12/11 07:31:12;;;;;;;21.00;3.65;;;;;;;9.31;100.00;99607.53;5026331;28;20041;-72
2023/12/11 07:33:41;;;;;;;24.58;4.20;;;;;;;9.27;100.00;99603.34;5026831;28;20046;-72
2023/12/11 07:36:10;;;;;;;20.00;3.90;;;;;;;9.28;100.00;99591.91;5027971;28;20064;-72
2023/12/11 07:38:37;;;;;;;21.25;3.97;;;;;;;9.28;100.00;99593.69;5017864;28;20046;-70
2023/12/11 07:41:06;;;;;;;24.50;4.03;;;;;;;9.27;100.00;99594.59;5014086;28;20053;-70
2023/12/11 07:43:35;;;;;;;23.00;3.97;;;;;;;9.27;100.00;99592.84;5017862;28;20132;-70
2023/12/11 07:46:03;;;;;;;19.55;3.95;;;;;;;9.28;100.00;99596.31;5020853;28;20041;-71
2023/12/11 07:48:30;;;;;;;22.58;3.60;;;;;;;9.32;100.00;99596.09;5022815;28;20051;-70
2023/12/11 07:50:57;;;;;;;18.42;3.45;;;;;;;9.32;100.00;99590.84;5022974;28;20127;-70
2023/12/11 07:53:24;;;;;;;20.05;3.70;;;;;;;9.32;100.00;99596.09;5023103;28;20042;-75
2023/12/11 07:55:51;;;;;;;21.60;3.67;;;;;;;9.37;100.00;99605.56;5022567;28;20038;-69
2023/12/11 07:58:18;;;;;;;22.08;3.72;;;;;;;9.38;100.00;99602.03;5026981;28;20065;-72
2023/12/11 08:00:45;;;;;;;19.38;3.55;;;;;;;9.38;100.00;99602.03;5039073;28;20450;-71
2023/12/11 08:03:13;;;;;;;16.15;3.25;;;;;;;9.39;100.00;99615.09;5008152;28;20121;-71
2023/12/11 08:05:40;;;;;;;16.75;4.03;;;;;;;9.39;100.00;99617.72;5026089;28;20452;-70
2023/12/11 08:08:07;;;;;;;23.83;4.07;;;;;;;9.39;100.00;99620.34;5027753;28;20042;-70
2023/12/11 08:10:34;;;;;;;20.02;3.30;;;;;;;9.36;100.00;99622.28;5025803;28;20057;-70
2023/12/11 08:13:02;;;;;;;19.77;3.60;;;;;;;9.38;100.00;99634.44;5025466;28;20056;-70
2023/12/11 08:15:29;;;;;;;18.63;3.70;;;;;;;9.36;100.00;99644.16;5022184;28;20046;-71
2023/12/11 08:17:56;;;;;;;18.52;3.58;;;;;;;9.33;100.00;99637.25;5022065;28;20080;-71
2023/12/11 08:20:24;;;;;;;24.17;3.95;;;;;;;9.31;100.00;99643.53;5024827;28;20053;-71
2023/12/11 08:22:51;;;;;;;19.77;3.50;;;;;;;9.30;100.00;99657.59;5020350;28;20060;-71
2023/12/11 08:25:19;;;;;;;15.82;3.33;;;;;;;9.26;100.00;99646.34;5012119;28;20553;-72
2023/12/11 08:27:46;;;;;;;18.25;3.13;;;;;;;9.27;100.00;99657.72;5023014;28;20053;-71
2023/12/11 08:30:13;;;;;;;22.95;3.45;;;;;;;9.28;100.00;99667.31;5021510;28;20056;-71
2023/12/11 08:32:40;;;;;;;15.60;2.63;;;;;;;9.28;100.00;99685.72;5038589;28;20579;-73
2023/12/11 08:35:08;;;;;;;19.58;3.30;;;;;;;9.24;100.00;99702.56;5022179;28;20501;-72
2023/12/11 08:37:36;;;;;;;17.42;3.08;;;;;;;9.18;100.00;99698.44;5022116;28;20128;-72
2023/12/11 08:40:05;;;;;;;17.23;3.15;;;;;;;9.07;100.00;99714.66;5023574;28;20048;-73
2023/12/11 08:42:36;;;;;;;18.52;2.72;;;;;;;8.96;100.00;99727.38;5020642;28;20596;-72
2023/12/11 08:45:08;;;;;;;12.50;2.10;;;;;;;8.84;100.00;99710.34;5021046;28;20048;-73
2023/12/11 08:47:36;;;;;;;14.13;2.72;;;;;;;8.80;100.00;99719.28;5026086;28;20116;-72
2023/12/11 08:50:07;;;;;;;15.73;2.78;;;;;;;8.78;100.00;99731.63;5016830;28;20046;-72
2023/12/11 08:52:37;;;;;;;17.15;3.33;;;;;;;8.77;100.00;99728.13;5022433;28;20552;-72
2023/12/11 08:55:05;;;;;;;17.50;3.22;;;;;;;8.77;100.00;99741.28;5010049;28;20045;-71
2023/12/11 08:57:33;;;;;;;12.80;2.95;;;;;;;8.78;100.00;99735.09;5041262;28;20669;-72
2023/12/11 09:00:03;;;;;;;16.55;3.20;;;;;;;8.78;100.00;99747.41;5025811;28;20129;-72
2023/12/11 09:02:31;;;;;;;16.40;3.13;;;;;;;8.80;100.00;99746.41;5024891;28;20052;-72
2023/12/11 09:04:58;;;;;;;16.73;2.58;;;;;;;8.80;100.00;99750.84;5031371;28;20048;-71
2023/12/11 09:07:25;;;;;;;14.07;2.40;;;;;;;8.83;100.00;99745.44;5061224;28;20045;-70
2023/12/11 09:09:52;;;;;;;15.02;2.88;;;;;;;8.85;100.00;99749.69;5048446;28;20555;-71
2023/12/11 09:12:19;;;;;;;20.27;2.80;;;;;;;8.88;100.00;99761.88;5060771;28;20137;-71
2023/12/11 09:14:59;;;;;;;14.32;2.80;;;;;;;8.91;100.00;99768.78;5027461;28;20073;-72
2023/12/11 09:17:27;;;;;;;15.55;3.13;;;;;;;8.93;100.00;99774.84;5036845;28;20042;-73
2023/12/11 09:19:56;;;;;;;17.73;2.83;;;;;;;8.97;100.00;99771.16;5007176;28;20053;-71
2023/12/11 09:22:25;;;;;;;14.32;2.42;;;;;;;8.97;100.00;99782.53;5040471;28;20041;-71
2023/12/11 09:24:52;;;;;;;13.80;3.83;;;;;;;8.99;100.00;99790.34;5040962;28;20132;-71
2023/12/11 09:27:19;;;;;;;14.45;2.28;;;;;;;9.00;100.00;99794.69;5024594;28;20494;-71
2023/12/11 09:29:48;;;;;;;17.02;3.10;;;;;;;9.00;100.00;99800.78;5027483;28;20766;-71
2023/12/11 09:32:16;;;;;;;15.55;2.75;;;;;;;9.04;100.00;99809.44;5025066;28;20111;-71
2023/12/11 09:34:45;;;;;;;17.10;2.72;;;;;;;9.05;100.00;99821.66;5025343;28;20069;-70
2023/12/11 09:37:12;;;;;;;14.77;3.40;;;;;;;9.06;100.00;99820.72;5030085;28;20046;-71
2023/12/11 09:39:40;;;;;;;8.98;1.92;;;;;;;9.08;100.00;99826.78;5029177;28;20049;-71
2023/12/11 09:42:13;;;;;;;10.07;2.28;;;;;;;9.09;100.00;99838.19;5039847;28;20045;-71
2023/12/11 09:44:44;;;;;;;14.63;2.70;;;;;;;9.07;100.00;99845.25;5023096;28;20038;-71
2023/12/11 09:47:25;;;;;;;12.25;4.25;;;;;;;9.06;100.00;99851.44;5024846;28;20042;-70
2023/12/11 09:49:53;;;;;;;12.70;2.65;;;;;;;9.06;100.00;99872.47;5024713;28;20083;-71
2023/12/11 09:52:24;;;;;;;13.70;2.33;;;;;;;9.03;100.00;99876.09;5024411;28;20046;-72
2023/12/11 09:54:51;;;;;;;9.52;1.80;;;;;;;8.98;100.00;99880.66;5022354;28;20045;-72
2023/12/11 09:57:19;;;;;;;14.40;2.92;;;;;;;8.92;100.00;99883.53;5023584;28;20045;-72
2023/12/11 09:59:50;;;;;;;15.05;2.20;;;;;;;8.88;100.00;99885.41;5025155;28;20041;-73
2023/12/11 10:02:17;;;;;;;6.32;2.10;;;;;;;8.82;100.00;99915.41;5027236;28;20073;-72
2023/12/11 10:05:05;;;;;;;12.02;1.98;;;;;;;8.78;100.00;99928.75;5028899;28;20039;-71
2023/12/11 10:07:32;;;;;;;14.45;2.17;;;;;;;8.73;100.00;99909.63;5038442;28;20064;-71
2023/12/11 10:10:33;;;;;;;13.35;2.00;;;;;;;8.67;100.00;99910.72;5027245;28;20052;-72
2023/12/11 10:13:01;;;;;;;14.52;2.60;;;;;;;8.63;100.00;99915.25;5024648;28;20880;-71
2023/12/11 10:15:33;;;;;;;14.00;2.50;;;;;;;8.64;100.00;99921.38;5019788;28;20063;-71
2023/12/11 10:18:09;;;;;;;13.05;2.90;;;;;;;8.63;100.00;99915.25;5016015;28;20139;-72
2023/12/11 10:20:40;;;;;;;14.32;2.80;;;;;;;8.67;100.00;99919.47;5005887;28;20061;-72
2023/12/11 10:23:18;;;;;;;16.95;4.05;;;;;;;8.75;100.00;99916.53;5042282;28;20045;-73
2023/12/11 10:25:48;;;;;;;12.55;2.75;;;;;;;8.80;100.00;99921.66;5024414;28;20041;-73
2023/12/11 10:28:19;;;;;;;10.02;2.63;;;;;;;8.85;100.00;99928.41;5021831;28;20092;-73
2023/12/11 10:30:58;;;;;;;11.55;2.80;;;;;;;8.85;100.00;99930.22;5024961;28;20350;-73
2023/12/11 10:33:32;;;;;;;12.57;2.17;;;;;;;8.83;100.00;99929.41;5021987;28;20049;-73
2023/12/11 10:36:13;;;;;;;11.70;2.10;;;;;;;8.88;100.00;99931.84;5023555;28;20076;-73
2023/12/11 10:38:43;;;;;;;9.77;2.13;;;;;;;8.94;100.00;99945.63;5022862;28;20370;-72
2023/12/11 10:41:26;;;;;;;11.25;2.22;;;;;;;9.02;100.00;99945.34;5022527;28;20037;-73
2023/12/11 10:43:53;;;;;;;11.75;2.25;;;;;;;9.07;100.00;99953.06;5022776;28;20052;-71
2023/12/11 10:46:43;;;;;;;9.80;2.20;;;;;;;9.09;100.00;99954.72;5008656;28;20080;-72
2023/12/11 10:49:10;;;;;;;10.32;2.47;;;;;;;9.10;100.00;99966.94;5023977;28;20048;-72
2023/12/11 10:51:38;;;;;;;10.52;2.40;;;;;;;9.15;100.00;99975.53;5022159;28;20492;-72
2023/12/11 10:55:02;;;;;;;9.43;2.00;;;;;;;9.19;100.00;99978.91;5058865;28;20483;-73
2023/12/11 10:57:30;;;;;;;10.23;2.70;;;;;;;9.21;100.00;99981.44;5034030;28;20045;-73
2023/12/11 10:59:58;;;;;;;11.10;2.58;;;;;;;9.23;100.00;99993.63;5034064;28;20045;-73
2023/12/11 11:02:26;;;;;;;10.73;2.10;;;;;;;9.26;100.00;99998.78;5041269;28;20045;-72
2023/12/11 11:04:56;;;;;;;10.02;1.90;;;;;;;9.25;100.00;99994.44;5048640;28;20041;-72
2023/12/11 11:07:36;;;;;;;9.73;2.08;;;;;;;9.29;100.00;100001.28;5039239;28;20417;-72
2023/12/11 11:10:12;;;;;;;8.07;1.98;;;;;;;9.33;100.00;100015.19;5052943;28;20051;-72
2023/12/11 11:13:08;;;;;;;10.07;2.22;;;;;;;9.33;100.00;100017.81;5037342;28;20157;-72
2023/12/11 11:15:35;;;;;;;;;;;;;;;9.31;100.00;100022.25;5038985;28;20743;-72
2023/12/11 11:18:09;;;;;;;7.90;2.20;;;;;;;9.33;100.00;100021.28;5039996;28;19968;-71
2023/12/11 11:20:39;;;;;;;7.22;2.50;;;;;;;9.34;100.00;100019.53;5040803;28;20071;-73
2023/12/11 11:23:15;;;;;;;8.43;2.15;;;;;;;9.38;100.00;100009.75;5040322;28;20051;-71
2023/12/11 11:25:53;;;;;;;10.82;2.80;;;;;;;9.40;100.00;100037.69;5039987;28;20132;-71
2023/12/11 11:28:41;;;;;;;9.93;2.30;;;;;;;9.42;100.00;100038.50;5038414;28;20115;-71
2023/12/11 11:31:11;;;;;;;7.63;2.17;;;;;;;9.46;100.00;100033.97;5023235;28;20123;-71
2023/12/11 11:33:55;;;;;;;8.02;2.13;;;;;;;9.43;100.00;100045.47;5038037;28;20135;-70